Pagrindinis puslapis
METAR-TAF:

METAR-TAF

Oro uostai :

Heidrun, Norvegija

platuma: 65-19-30N, ilguma: 007-19-36E, Aukštis: 0 m

Dabartinis oras

Ataskaita buvo paskelbta 18 minutes, ne 19:50 UTC
Vėjas 13 kt iš Šiaurės Vakarų
Temperatūra 7°C
Drėgmė 66%
Slėgis 1002 hPa
Matomumas 10 km arba daugiau
Mažai debesys ne aukštis 3500 ft

METAR: ENHE 231950Z 31013KT 9999 FEW035 07/01 Q1002 W///S5

Laikas: 22:08 (20:08 UTC)

Prognozė

Ataskaita buvo paskelbta 3 valandos ir 8 minutes, ne 17:00 UTC
Prognozė galioja nuo 23 metu 18 UTC su 24 metu 03 UTC
Vėjas 15 kt iš Vakarų/Šiaurės Vakarų
Matomumas 10 km arba daugiau
Mažai debesys ne aukštis 2500 ft
Su prošvaistėmis ne aukštis 4500 ft
Tapsmas
nuo 23 metu 19 UTC su 23 metu 22 UTC
Vėjas 5 kt iš Šiaurės Vakarų
Tapsmas
nuo 24 metu 01 UTC su 24 metu 03 UTC
Vėjas 10 kt iš Šiaurės Rytų

TAF: ENHE 231700Z 2318/2403 29015KT 9999 FEW025 BKN045 BECMG 2319/2322 32005KT BECMG 2401/2403 05010KT

Orai ataskaitas ir orų prognozės (METAR, TAF).

turimą stotys yra geltonos ir raudonos taškus žemėlapyje.

Perkelti pele per norėdami pamatyti stoties vardą.

Tada spustelėkite, norėdami matyti oro stebėjimo ir prognozės.

Norėdami pakeisti žemėlapį: spustelėkite ant žalios mygtukų su juodo kryžiaus žemyn,; žalią mygtuką su brūkšneliu, jei norite nutolinti; arba žalių rodyklių gretimoms žemėlapius.


METAR-TAF: